Archival Weather

Fukuoka

Fukuoka, Japan (RJFF)

Report from: Tuesday, August 16, 2022 5:30 AM JST
Current time: Sunday, November 27, 2022 4:42 PM JST

Current weather
Weather history
Weather forecast

Temperature29.0°C (84.2°F)
Heat index33.7°C (92.7°F)
Dew point24.0°C (75.2°F)
Winds 7 kts (3.6 m/s, 8.1 mph) Vrb
Winds variableWinds variable from South-Southeast (150°) to South-Southwest (210°)
Visibility6.2 mi. (10 km)
Clouds Few clouds 3,400 ft. (1,036 m)
Scattered clouds 4,400 ft. (1,341 m)
Altimeter29.71 in.Hg (1006 mB)
Relative humidity75 %
Density altitude2,251 ft. (686 m)
Remarks Fully automated report
No significant changes expected in the next two hours
Flight conditions Visual Meteorological Conditions
Raw dataRJFF 152030Z AUTO 18007KT 150V210 9999 FEW034 SCT044 //////TCU 29/24 Q1006 NOSIG
An error has occurred. This application may no longer respond until reloaded. Reload 🗙